If you wish to contribute or participate in the discussions about articles you are invited to join SKYbrary as a registered user

 Actions

Bari/Karol Wojtyła Airport

From SKYbrary Wiki

LIBD
Airport
ICAO: LIBD – IATA: BRI
Summary
Name Bari/Karol Wojtyła Airport
Region Europe
Territory Italy IT.gif
Location Palese, Puglia
Serving Bari
Elevation 53.95 m
177 ft
177 ft53.95 m
Coordinates 41° 8' 16.05" N, 16° 45' 41.10" E
Runways
Designator Length Width Surface ROPS
7/25 2440 m8,005.249 ft
45 m147.638 ft
ASP no/no


METAR
Observation LIBD 181720Z 35006KT 320V020 CAVOK 15/10 Q1023
Station Bari / Palese Macchie
Date/Time 18 April 2019 17:20:00
Wind direction 350°
Wind speed 06 kts
Lowest cloud amount clouds and visibility OK
Temperature 15°C
Dew point 10°C
Humidity 72%
QNH 1023 hPa
Weather condition n/a

International airport serving city of Bari, Italy.

Climatology

Dry-summer subtropical ”Mediterranean" climate (Köppen climate classification Csa) - characterized by hot, dry summers and mild winters. During the summer, subtropical high pressure cells dominate, making rainfall unlikely except for the occasional thunderstorm. In the winter, periodic storms bring rain (snow at higher elevations).

Maps

Terrain

Loading map...

Airport Layout

Loading map...


Accidents & Serious Incidents at or in vicinity of LIBD

None on SKYbrary